Terminal Aerodrome Forecast
Issued by NWS

Home | Current Version | Previous Version | Text Only | Print | Product List | Glossary On
Versions: 1 2 3 4 5 6 7 8 9 10 11 12 13 14 15 16 17 18
000
FTUS43 KDDC 240520
TAFHYS
TAF
KHYS 240520Z 2406/2506 16011KT P6SM SCT080
     FM241500 17013G20KT P6SM VCSH BKN080
     FM241800 17017G25KT P6SM VCTS BKN050CB=

USA.gov is the U.S. government's official web portal to all federal, state and local government web resources and services.